createdAt,value
2019-02-04T00:04:07.524Z,93.7
2019-02-04T00:09:07.426Z,93.96
2019-02-04T00:14:07.855Z,94.12
2019-02-04T00:18:06.887Z,94.31
2019-02-04T00:23:08.005Z,94.55
2019-02-04T00:28:07.113Z,94.66
2019-02-04T00:33:07.342Z,94.76
2019-02-04T00:38:06.790Z,94.76
2019-02-04T00:43:07.498Z,95.22
2019-02-04T00:48:07.139Z,95.4
2019-02-04T00:52:05.987Z,95.85
2019-02-04T00:57:06.508Z,96.05
2019-02-04T01:02:07.820Z,96.18
2019-02-04T01:07:06.710Z,96.14
2019-02-04T01:12:07.661Z,96.2
2019-02-04T01:17:06.955Z,96.31
2019-02-04T01:22:07.402Z,96.47
2019-02-04T01:26:06.449Z,96.59
2019-02-04T01:31:06.124Z,96.58
2019-02-04T01:36:06.638Z,96.81
2019-02-04T01:41:06.467Z,96.95
2019-02-04T01:46:06.858Z,97.06
2019-02-04T01:51:06.339Z,97.44
2019-02-04T01:56:06.848Z,97.33
2019-02-04T02:00:08.954Z,97.39
2019-02-04T02:05:11.073Z,97.48
2019-02-04T02:10:08.677Z,97.62
2019-02-04T02:15:09.054Z,97.81
2019-02-04T02:20:07.948Z,97.9
2019-02-04T02:25:07.363Z,97.84
2019-02-04T02:34:07.005Z,98.15
2019-02-04T02:39:06.772Z,97.99
2019-02-04T02:44:06.320Z,98.15
2019-02-04T02:49:06.713Z,98.32
2019-02-04T02:54:06.182Z,98.47
2019-02-04T02:59:06.687Z,98.34
2019-02-04T03:04:07.383Z,98.4
2019-02-04T03:08:06.490Z,98.61
2019-02-04T03:13:06.236Z,98.53
2019-02-04T03:18:06.731Z,98.5
2019-02-04T03:23:06.242Z,98.63
2019-02-04T03:28:06.681Z,98.53
2019-02-04T03:33:07.064Z,98.5
2019-02-04T03:37:07.477Z,98.48
2019-02-04T03:38:06.911Z,98.48
2019-02-04T03:42:06.674Z,98.37
2019-02-04T03:47:07.403Z,98.47
2019-02-04T03:52:06.921Z,98.63
2019-02-04T03:57:07.271Z,98.69
2019-02-04T04:02:07.350Z,99.05
2019-02-04T04:07:05.998Z,98.93
2019-02-04T04:12:08.874Z,98.37
2019-02-04T04:16:07.151Z,98.31
2019-02-04T04:21:07.580Z,98.21
2019-02-04T04:26:07.061Z,98.02
2019-02-04T04:31:06.692Z,97.73
2019-02-04T04:36:07.683Z,97.4
2019-02-04T04:41:06.773Z,97.55
2019-02-04T04:45:09.876Z,97.26
2019-02-04T04:46:07.417Z,97.26
2019-02-04T04:50:06.297Z,97.22
2019-02-04T04:55:07.796Z,97.31
2019-02-04T05:00:08.138Z,97.08
2019-02-04T05:05:07.584Z,96.92
2019-02-04T05:10:06.919Z,97.05
2019-02-04T05:15:09.200Z,97.2
2019-02-04T05:20:06.763Z,97.39
2019-02-04T05:24:07.337Z,97.65
2019-02-04T05:29:06.684Z,97.61
2019-02-04T05:34:06.992Z,97.67
2019-02-04T05:39:08.605Z,98.05
2019-02-04T05:44:07.110Z,98.44
2019-02-04T05:49:07.303Z,98.47
2019-02-04T05:54:07.129Z,98.07
2019-02-04T05:58:06.013Z,97.82
2019-02-04T06:03:06.791Z,97.44
2019-02-04T06:08:07.260Z,97.53
2019-02-04T06:13:07.098Z,97.4
2019-02-04T06:18:07.875Z,97.39
2019-02-04T06:23:06.826Z,97.55
2019-02-04T06:28:07.381Z,97.6
2019-02-04T06:32:07.185Z,97.82
2019-02-04T06:37:06.612Z,97.98
2019-02-04T06:42:07.372Z,97.62
2019-02-04T06:47:06.820Z,97.66
2019-02-04T06:52:07.536Z,97.82
2019-02-04T06:57:08.273Z,97.79
2019-02-04T07:02:06.243Z,97.46
2019-02-04T07:06:07.460Z,96.93
2019-02-04T07:11:07.335Z,96.92
2019-02-04T07:16:06.656Z,96.87
2019-02-04T07:21:07.061Z,96.82
2019-02-04T07:26:07.540Z,97.07
2019-02-04T07:31:06.736Z,96.92
2019-02-04T07:36:07.336Z,96.8
2019-02-04T07:40:06.058Z,97.09
2019-02-04T07:45:07.890Z,96.75
2019-02-04T07:50:06.605Z,95.69
2019-02-04T07:55:05.999Z,95.12
2019-02-04T08:00:09.139Z,95.01
2019-02-04T08:05:07.586Z,95.19
2019-02-04T08:10:07.463Z,94.3
2019-02-04T08:14:06.396Z,90.8
2019-02-04T08:19:06.687Z,86.88
2019-02-04T08:24:06.759Z,84.08
2019-02-04T08:29:07.138Z,82.09
2019-02-04T08:34:07.575Z,81.83
2019-02-04T08:39:07.437Z,82.05
2019-02-04T08:44:06.897Z,80
2019-02-04T15:26:07.549Z,75.19
2019-02-04T15:31:06.637Z,73.72
2019-02-04T15:37:08.031Z,69.22
2019-02-04T15:43:07.277Z,64.11
2019-02-04T15:49:08.442Z,62.29
2019-02-04T15:55:07.014Z,61.11
2019-02-04T16:01:07.781Z,60.64
2019-02-04T16:07:06.855Z,60.3
2019-02-04T16:13:07.563Z,60.05
2019-02-04T16:18:07.571Z,60.2
2019-02-04T16:25:07.881Z,60.11
2019-02-04T16:30:08.462Z,60.05
2019-02-04T16:36:07.987Z,60.11
2019-02-04T16:42:07.473Z,60.11
2019-02-04T16:49:06.907Z,60.17
2019-02-04T16:55:07.614Z,60.23
2019-02-04T17:01:06.893Z,60.32
2019-02-04T17:06:07.522Z,60.76
2019-02-04T17:12:07.228Z,61.26
2019-02-04T17:19:07.646Z,60.83
2019-02-04T17:25:07.251Z,60.7
2019-02-04T17:32:06.989Z,60.56
2019-02-04T17:38:06.656Z,60.5
2019-02-04T17:46:06.903Z,60.75
2019-02-04T17:52:06.781Z,60.04
2019-02-04T18:00:09.489Z,60.27
2019-02-04T18:06:06.504Z,59.8
2019-02-04T18:13:06.737Z,60.23
2019-02-04T18:21:07.237Z,59.81
2019-02-04T18:28:08.068Z,59.72
2019-02-04T18:34:07.757Z,60.82
2019-02-04T18:35:06.085Z,60.82
2019-02-04T18:41:07.418Z,60.42
2019-02-04T18:49:07.323Z,60.52
2019-02-04T18:54:06.625Z,60.2
2019-02-04T19:10:06.695Z,61.08
2019-02-04T19:17:07.028Z,59.29
2019-02-04T19:23:07.386Z,60.13
2019-02-04T19:29:07.983Z,60.41
2019-02-04T19:35:06.410Z,60.5
2019-02-04T19:40:06.303Z,61.12
2019-02-04T19:48:06.938Z,61.62
2019-02-04T20:01:06.660Z,61.28
2019-02-04T20:14:07.532Z,61.24
2019-02-04T20:22:07.714Z,60.51
2019-02-04T20:29:07.427Z,60.46
2019-02-04T20:36:06.429Z,60.22
2019-02-04T20:43:07.620Z,60.14
2019-02-04T20:51:07.196Z,60.33
2019-02-04T20:58:07.306Z,59.85
2019-02-04T21:12:07.201Z,60.41
2019-02-04T21:19:07.395Z,60.02
2019-02-04T21:24:06.836Z,60.33
2019-02-04T21:32:07.454Z,61.08
2019-02-04T21:40:07.285Z,59.47
2019-02-04T21:48:07.279Z,59.4
2019-02-04T21:53:06.546Z,59.16
2019-02-04T21:57:06.449Z,69.8
2019-02-04T22:02:07.844Z,73.45
2019-02-04T22:07:10.016Z,75.74
2019-02-04T22:12:07.037Z,77.02
2019-02-04T22:17:06.849Z,77.57
2019-02-04T22:22:07.530Z,77.76
2019-02-04T22:26:06.578Z,78.22
2019-02-04T22:31:06.447Z,78.88
2019-02-04T22:36:06.100Z,79.29
2019-02-04T22:41:06.249Z,80.09
2019-02-04T22:46:06.461Z,80.45
2019-02-04T22:51:06.178Z,80.41
2019-02-04T22:55:08.120Z,80.63
2019-02-04T23:00:08.239Z,80.41
2019-02-04T23:05:06.893Z,80.26
2019-02-04T23:10:07.679Z,80.64
2019-02-04T23:15:09.271Z,80.82
2019-02-04T23:20:07.261Z,80.74
2019-02-04T23:25:06.619Z,80.09
2019-02-04T23:29:07.207Z,80.06
2019-02-04T23:34:07.178Z,80.74
2019-02-04T23:39:08.007Z,80.48
2019-02-04T23:44:07.504Z,80.22
2019-02-04T23:49:07.590Z,79.71
2019-02-04T23:54:07.022Z,80.55
2019-02-04T23:58:06.921Z,80.96
